sensor_id;sensor_type;location;lat;lon;timestamp;P1;durP1;ratioP1;P2;durP2;ratioP2
76896;SDS011;65856;52.178;21.176;2024-02-28T00:01:47;38.30;;;22.10;;
76896;SDS011;65856;52.178;21.176;2024-02-28T00:04:14;36.30;;;21.10;;
76896;SDS011;65856;52.178;21.176;2024-02-28T00:06:39;40.00;;;21.50;;
76896;SDS011;65856;52.178;21.176;2024-02-28T00:09:05;37.00;;;22.60;;
76896;SDS011;65856;52.178;21.176;2024-02-28T00:11:30;34.20;;;21.00;;
76896;SDS011;65856;52.178;21.176;2024-02-28T00:13:56;46.70;;;24.60;;
76896;SDS011;65856;52.178;21.176;2024-02-28T00:16:21;42.00;;;23.40;;
76896;SDS011;65856;52.178;21.176;2024-02-28T00:18:46;37.70;;;22.10;;
76896;SDS011;65856;52.178;21.176;2024-02-28T00:21:12;35.00;;;20.70;;
76896;SDS011;65856;52.178;21.176;2024-02-28T00:23:37;35.90;;;20.30;;
76896;SDS011;65856;52.178;21.176;2024-02-28T00:26:03;33.70;;;20.60;;
76896;SDS011;65856;52.178;21.176;2024-02-28T00:28:28;40.50;;;22.60;;
76896;SDS011;65856;52.178;21.176;2024-02-28T00:30:53;43.50;;;22.70;;
76896;SDS011;65856;52.178;21.176;2024-02-28T00:33:19;36.80;;;21.60;;
76896;SDS011;65856;52.178;21.176;2024-02-28T00:35:44;40.50;;;22.30;;
76896;SDS011;65856;52.178;21.176;2024-02-28T00:38:10;37.10;;;22.80;;
76896;SDS011;65856;52.178;21.176;2024-02-28T00:40:35;43.10;;;22.70;;
76896;SDS011;65856;52.178;21.176;2024-02-28T00:43:00;40.90;;;22.50;;
76896;SDS011;65856;52.178;21.176;2024-02-28T00:45:26;41.30;;;23.00;;
76896;SDS011;65856;52.178;21.176;2024-02-28T00:47:52;40.70;;;23.50;;
76896;SDS011;65856;52.178;21.176;2024-02-28T00:50:19;42.10;;;23.40;;
76896;SDS011;65856;52.178;21.176;2024-02-28T00:52:45;42.20;;;23.00;;
76896;SDS011;65856;52.178;21.176;2024-02-28T00:55:10;39.40;;;23.10;;
76896;SDS011;65856;52.178;21.176;2024-02-28T00:57:36;39.00;;;22.60;;
76896;SDS011;65856;52.178;21.176;2024-02-28T01:00:01;40.80;;;23.00;;
76896;SDS011;65856;52.178;21.176;2024-02-28T01:02:27;39.50;;;22.60;;
76896;SDS011;65856;52.178;21.176;2024-02-28T01:04:52;38.20;;;22.60;;
76896;SDS011;65856;52.178;21.176;2024-02-28T01:07:18;39.90;;;22.60;;
76896;SDS011;65856;52.178;21.176;2024-02-28T01:09:43;43.10;;;23.50;;
76896;SDS011;65856;52.178;21.176;2024-02-28T01:12:09;41.20;;;22.50;;
76896;SDS011;65856;52.178;21.176;2024-02-28T01:14:35;36.60;;;21.70;;
76896;SDS011;65856;52.178;21.176;2024-02-28T01:17:00;37.30;;;22.80;;
76896;SDS011;65856;52.178;21.176;2024-02-28T01:19:25;40.40;;;22.60;;
76896;SDS011;65856;52.178;21.176;2024-02-28T01:21:51;36.90;;;21.90;;
76896;SDS011;65856;52.178;21.176;2024-02-28T01:24:16;39.60;;;22.00;;
76896;SDS011;65856;52.178;21.176;2024-02-28T01:26:42;39.10;;;22.40;;
76896;SDS011;65856;52.178;21.176;2024-02-28T01:29:07;38.60;;;22.80;;
76896;SDS011;65856;52.178;21.176;2024-02-28T01:31:33;36.90;;;21.60;;
76896;SDS011;65856;52.178;21.176;2024-02-28T01:33:58;37.30;;;22.50;;
76896;SDS011;65856;52.178;21.176;2024-02-28T01:36:23;39.80;;;21.80;;
76896;SDS011;65856;52.178;21.176;2024-02-28T01:38:49;40.20;;;22.40;;
76896;SDS011;65856;52.178;21.176;2024-02-28T01:41:14;35.50;;;22.50;;
76896;SDS011;65856;52.178;21.176;2024-02-28T01:43:40;49.60;;;28.20;;
76896;SDS011;65856;52.178;21.176;2024-02-28T01:46:20;58.00;;;35.10;;
76896;SDS011;65856;52.178;21.176;2024-02-28T01:48:48;60.60;;;33.50;;
76896;SDS011;65856;52.178;21.176;2024-02-28T01:51:14;61.90;;;36.40;;
76896;SDS011;65856;52.178;21.176;2024-02-28T01:53:40;57.60;;;32.90;;
76896;SDS011;65856;52.178;21.176;2024-02-28T01:56:06;51.60;;;28.80;;
76896;SDS011;65856;52.178;21.176;2024-02-28T01:58:31;51.00;;;27.10;;
76896;SDS011;65856;52.178;21.176;2024-02-28T02:00:58;52.00;;;27.40;;
76896;SDS011;65856;52.178;21.176;2024-02-28T02:03:24;50.50;;;27.90;;
76896;SDS011;65856;52.178;21.176;2024-02-28T02:05:49;51.30;;;28.80;;
76896;SDS011;65856;52.178;21.176;2024-02-28T02:08:15;50.30;;;28.20;;
76896;SDS011;65856;52.178;21.176;2024-02-28T02:10:41;51.30;;;28.70;;
76896;SDS011;65856;52.178;21.176;2024-02-28T02:13:07;54.80;;;27.70;;
76896;SDS011;65856;52.178;21.176;2024-02-28T02:15:33;48.50;;;26.80;;
76896;SDS011;65856;52.178;21.176;2024-02-28T02:17:58;47.50;;;27.10;;
76896;SDS011;65856;52.178;21.176;2024-02-28T02:20:26;49.90;;;27.10;;
76896;SDS011;65856;52.178;21.176;2024-02-28T02:22:53;45.20;;;26.00;;
76896;SDS011;65856;52.178;21.176;2024-02-28T02:25:18;48.60;;;25.70;;
76896;SDS011;65856;52.178;21.176;2024-02-28T02:27:44;45.80;;;26.40;;
76896;SDS011;65856;52.178;21.176;2024-02-28T02:30:10;46.60;;;27.00;;
76896;SDS011;65856;52.178;21.176;2024-02-28T02:32:36;51.40;;;28.30;;
76896;SDS011;65856;52.178;21.176;2024-02-28T02:35:01;46.10;;;26.60;;
76896;SDS011;65856;52.178;21.176;2024-02-28T02:37:27;45.00;;;26.20;;
76896;SDS011;65856;52.178;21.176;2024-02-28T02:39:52;47.60;;;26.80;;
76896;SDS011;65856;52.178;21.176;2024-02-28T02:42:18;43.00;;;26.80;;
76896;SDS011;65856;52.178;21.176;2024-02-28T02:44:44;50.30;;;26.80;;
76896;SDS011;65856;52.178;21.176;2024-02-28T02:47:09;46.50;;;26.50;;
76896;SDS011;65856;52.178;21.176;2024-02-28T02:49:35;45.20;;;25.60;;
76896;SDS011;65856;52.178;21.176;2024-02-28T02:52:00;47.00;;;26.90;;
76896;SDS011;65856;52.178;21.176;2024-02-28T02:54:25;46.20;;;26.00;;
76896;SDS011;65856;52.178;21.176;2024-02-28T02:56:51;46.10;;;26.30;;
76896;SDS011;65856;52.178;21.176;2024-02-28T02:59:16;49.20;;;26.30;;
76896;SDS011;65856;52.178;21.176;2024-02-28T03:01:42;44.40;;;25.00;;
76896;SDS011;65856;52.178;21.176;2024-02-28T03:04:07;42.70;;;25.00;;
76896;SDS011;65856;52.178;21.176;2024-02-28T03:06:33;42.40;;;25.00;;
76896;SDS011;65856;52.178;21.176;2024-02-28T03:08:58;47.50;;;26.00;;
76896;SDS011;65856;52.178;21.176;2024-02-28T03:11:23;47.30;;;26.40;;
76896;SDS011;65856;52.178;21.176;2024-02-28T03:13:49;42.10;;;25.10;;
76896;SDS011;65856;52.178;21.176;2024-02-28T03:16:15;48.40;;;26.40;;
76896;SDS011;65856;52.178;21.176;2024-02-28T03:18:40;46.30;;;25.70;;
76896;SDS011;65856;52.178;21.176;2024-02-28T03:21:05;43.60;;;25.10;;
76896;SDS011;65856;52.178;21.176;2024-02-28T03:23:32;47.10;;;25.40;;
76896;SDS011;65856;52.178;21.176;2024-02-28T03:25:58;44.40;;;25.70;;
76896;SDS011;65856;52.178;21.176;2024-02-28T03:28:23;44.60;;;26.30;;
76896;SDS011;65856;52.178;21.176;2024-02-28T03:30:49;50.10;;;26.40;;
76896;SDS011;65856;52.178;21.176;2024-02-28T03:33:14;46.80;;;25.80;;
76896;SDS011;65856;52.178;21.176;2024-02-28T03:35:39;46.80;;;25.50;;
76896;SDS011;65856;52.178;21.176;2024-02-28T03:38:05;42.90;;;24.80;;
76896;SDS011;65856;52.178;21.176;2024-02-28T03:40:30;42.30;;;24.40;;
76896;SDS011;65856;52.178;21.176;2024-02-28T03:42:56;39.40;;;23.60;;
76896;SDS011;65856;52.178;21.176;2024-02-28T03:45:22;39.10;;;23.30;;
76896;SDS011;65856;52.178;21.176;2024-02-28T03:47:48;43.00;;;24.30;;
76896;SDS011;65856;52.178;21.176;2024-02-28T03:50:13;43.00;;;24.90;;
76896;SDS011;65856;52.178;21.176;2024-02-28T03:52:39;41.00;;;25.00;;
76896;SDS011;65856;52.178;21.176;2024-02-28T03:55:04;48.60;;;25.00;;
76896;SDS011;65856;52.178;21.176;2024-02-28T03:57:30;41.60;;;25.90;;
76896;SDS011;65856;52.178;21.176;2024-02-28T03:59:55;38.10;;;23.60;;
76896;SDS011;65856;52.178;21.176;2024-02-28T04:02:21;41.20;;;24.20;;
76896;SDS011;65856;52.178;21.176;2024-02-28T04:04:46;43.70;;;24.70;;
76896;SDS011;65856;52.178;21.176;2024-02-28T04:07:11;41.20;;;23.60;;
76896;SDS011;65856;52.178;21.176;2024-02-28T04:09:37;43.40;;;25.00;;
76896;SDS011;65856;52.178;21.176;2024-02-28T04:12:02;38.50;;;23.40;;
76896;SDS011;65856;52.178;21.176;2024-02-28T04:14:28;39.60;;;24.80;;
76896;SDS011;65856;52.178;21.176;2024-02-28T04:16:53;44.80;;;24.20;;
76896;SDS011;65856;52.178;21.176;2024-02-28T04:19:19;43.40;;;26.30;;
76896;SDS011;65856;52.178;21.176;2024-02-28T04:21:44;40.80;;;24.90;;
76896;SDS011;65856;52.178;21.176;2024-02-28T04:24:10;45.60;;;25.20;;
76896;SDS011;65856;52.178;21.176;2024-02-28T04:26:35;42.70;;;25.00;;
76896;SDS011;65856;52.178;21.176;2024-02-28T04:29:01;42.40;;;24.10;;
76896;SDS011;65856;52.178;21.176;2024-02-28T04:31:30;46.00;;;25.10;;
76896;SDS011;65856;52.178;21.176;2024-02-28T04:33:56;44.50;;;24.80;;
76896;SDS011;65856;52.178;21.176;2024-02-28T04:36:22;45.00;;;25.70;;
76896;SDS011;65856;52.178;21.176;2024-02-28T04:38:47;48.00;;;26.30;;
76896;SDS011;65856;52.178;21.176;2024-02-28T04:41:13;49.30;;;27.10;;
76896;SDS011;65856;52.178;21.176;2024-02-28T04:43:39;51.70;;;27.30;;
76896;SDS011;65856;52.178;21.176;2024-02-28T04:46:05;46.10;;;27.40;;
76896;SDS011;65856;52.178;21.176;2024-02-28T04:48:30;47.90;;;27.70;;
76896;SDS011;65856;52.178;21.176;2024-02-28T04:50:56;50.70;;;27.70;;
76896;SDS011;65856;52.178;21.176;2024-02-28T04:53:22;46.40;;;26.40;;
76896;SDS011;65856;52.178;21.176;2024-02-28T04:55:47;43.50;;;25.30;;
76896;SDS011;65856;52.178;21.176;2024-02-28T04:58:12;38.10;;;22.80;;
76896;SDS011;65856;52.178;21.176;2024-02-28T05:00:38;37.10;;;23.50;;
76896;SDS011;65856;52.178;21.176;2024-02-28T05:03:04;38.50;;;23.10;;
76896;SDS011;65856;52.178;21.176;2024-02-28T05:05:29;39.50;;;22.60;;
76896;SDS011;65856;52.178;21.176;2024-02-28T05:07:55;40.20;;;23.70;;
76896;SDS011;65856;52.178;21.176;2024-02-28T05:10:20;40.80;;;24.30;;
76896;SDS011;65856;52.178;21.176;2024-02-28T05:12:45;39.30;;;23.80;;
76896;SDS011;65856;52.178;21.176;2024-02-28T05:15:11;35.50;;;21.10;;
76896;SDS011;65856;52.178;21.176;2024-02-28T05:17:36;35.90;;;21.40;;
76896;SDS011;65856;52.178;21.176;2024-02-28T05:20:02;37.00;;;22.00;;
76896;SDS011;65856;52.178;21.176;2024-02-28T05:22:28;35.60;;;22.00;;
76896;SDS011;65856;52.178;21.176;2024-02-28T05:24:53;35.80;;;21.60;;
76896;SDS011;65856;52.178;21.176;2024-02-28T05:27:18;36.60;;;21.90;;
76896;SDS011;65856;52.178;21.176;2024-02-28T05:29:44;41.30;;;24.50;;
76896;SDS011;65856;52.178;21.176;2024-02-28T05:32:10;45.80;;;25.70;;
76896;SDS011;65856;52.178;21.176;2024-02-28T05:34:35;33.60;;;20.60;;
76896;SDS011;65856;52.178;21.176;2024-02-28T05:37:01;42.00;;;24.50;;
76896;SDS011;65856;52.178;21.176;2024-02-28T05:39:27;40.60;;;23.80;;
76896;SDS011;65856;52.178;21.176;2024-02-28T05:41:56;45.30;;;25.80;;
76896;SDS011;65856;52.178;21.176;2024-02-28T05:44:22;46.40;;;25.60;;
76896;SDS011;65856;52.178;21.176;2024-02-28T05:46:47;46.80;;;27.30;;
76896;SDS011;65856;52.178;21.176;2024-02-28T05:49:13;47.50;;;26.20;;
76896;SDS011;65856;52.178;21.176;2024-02-28T05:51:38;46.20;;;25.70;;
76896;SDS011;65856;52.178;21.176;2024-02-28T05:54:04;44.00;;;25.70;;
76896;SDS011;65856;52.178;21.176;2024-02-28T05:56:29;46.90;;;26.80;;
76896;SDS011;65856;52.178;21.176;2024-02-28T05:58:55;49.00;;;27.20;;
76896;SDS011;65856;52.178;21.176;2024-02-28T06:01:20;46.20;;;27.40;;
76896;SDS011;65856;52.178;21.176;2024-02-28T06:03:47;45.10;;;27.80;;
76896;SDS011;65856;52.178;21.176;2024-02-28T06:06:13;48.90;;;28.30;;
76896;SDS011;65856;52.178;21.176;2024-02-28T06:08:39;50.80;;;28.10;;
76896;SDS011;65856;52.178;21.176;2024-02-28T06:11:06;52.50;;;28.10;;
76896;SDS011;65856;52.178;21.176;2024-02-28T06:13:32;47.10;;;26.90;;
76896;SDS011;65856;52.178;21.176;2024-02-28T06:15:58;45.90;;;27.50;;
76896;SDS011;65856;52.178;21.176;2024-02-28T06:18:25;49.20;;;28.10;;
76896;SDS011;65856;52.178;21.176;2024-02-28T06:20:58;49.30;;;27.10;;
76896;SDS011;65856;52.178;21.176;2024-02-28T06:23:24;45.50;;;26.90;;
76896;SDS011;65856;52.178;21.176;2024-02-28T06:25:50;34.20;;;21.60;;
76896;SDS011;65856;52.178;21.176;2024-02-28T06:28:16;46.80;;;26.90;;
76896;SDS011;65856;52.178;21.176;2024-02-28T06:30:44;45.70;;;26.40;;
76896;SDS011;65856;52.178;21.176;2024-02-28T06:33:13;48.50;;;27.80;;
76896;SDS011;65856;52.178;21.176;2024-02-28T06:35:39;49.80;;;27.90;;
76896;SDS011;65856;52.178;21.176;2024-02-28T06:38:05;46.80;;;27.80;;
76896;SDS011;65856;52.178;21.176;2024-02-28T06:40:31;55.50;;;28.80;;
76896;SDS011;65856;52.178;21.176;2024-02-28T06:42:56;49.30;;;28.20;;
76896;SDS011;65856;52.178;21.176;2024-02-28T06:45:21;46.50;;;27.20;;
76896;SDS011;65856;52.178;21.176;2024-02-28T06:47:47;46.10;;;26.90;;
76896;SDS011;65856;52.178;21.176;2024-02-28T06:50:13;45.50;;;26.80;;
76896;SDS011;65856;52.178;21.176;2024-02-28T06:52:39;47.00;;;27.50;;
76896;SDS011;65856;52.178;21.176;2024-02-28T06:55:04;51.80;;;28.10;;
76896;SDS011;65856;52.178;21.176;2024-02-28T06:57:39;47.70;;;26.80;;
76896;SDS011;65856;52.178;21.176;2024-02-28T07:00:07;47.00;;;26.60;;
76896;SDS011;65856;52.178;21.176;2024-02-28T07:02:34;48.50;;;27.40;;
76896;SDS011;65856;52.178;21.176;2024-02-28T07:05:01;50.00;;;28.60;;
76896;SDS011;65856;52.178;21.176;2024-02-28T07:07:28;48.00;;;27.10;;
76896;SDS011;65856;52.178;21.176;2024-02-28T07:09:53;44.90;;;26.50;;
76896;SDS011;65856;52.178;21.176;2024-02-28T07:12:19;46.60;;;27.20;;
76896;SDS011;65856;52.178;21.176;2024-02-28T07:14:44;46.70;;;27.20;;
76896;SDS011;65856;52.178;21.176;2024-02-28T07:17:10;46.60;;;27.50;;
76896;SDS011;65856;52.178;21.176;2024-02-28T07:19:35;49.60;;;28.90;;
76896;SDS011;65856;52.178;21.176;2024-02-28T07:22:01;48.40;;;27.50;;
76896;SDS011;65856;52.178;21.176;2024-02-28T07:24:27;45.70;;;27.40;;
76896;SDS011;65856;52.178;21.176;2024-02-28T07:26:52;51.30;;;27.50;;
76896;SDS011;65856;52.178;21.176;2024-02-28T07:29:17;46.30;;;27.30;;
76896;SDS011;65856;52.178;21.176;2024-02-28T07:31:43;47.80;;;27.60;;
76896;SDS011;65856;52.178;21.176;2024-02-28T07:34:08;46.80;;;27.50;;
76896;SDS011;65856;52.178;21.176;2024-02-28T07:36:34;46.10;;;27.10;;
76896;SDS011;65856;52.178;21.176;2024-02-28T07:38:59;47.30;;;28.20;;
76896;SDS011;65856;52.178;21.176;2024-02-28T07:41:25;50.80;;;28.00;;
76896;SDS011;65856;52.178;21.176;2024-02-28T07:43:50;45.80;;;26.50;;
76896;SDS011;65856;52.178;21.176;2024-02-28T07:46:16;49.70;;;27.90;;
76896;SDS011;65856;52.178;21.176;2024-02-28T07:48:41;46.30;;;26.80;;
76896;SDS011;65856;52.178;21.176;2024-02-28T07:51:08;50.00;;;28.10;;
76896;SDS011;65856;52.178;21.176;2024-02-28T07:53:34;47.20;;;26.60;;
76896;SDS011;65856;52.178;21.176;2024-02-28T07:56:00;45.40;;;26.50;;
76896;SDS011;65856;52.178;21.176;2024-02-28T07:58:26;46.80;;;26.20;;
76896;SDS011;65856;52.178;21.176;2024-02-28T08:00:51;45.20;;;27.10;;
76896;SDS011;65856;52.178;21.176;2024-02-28T08:03:19;45.90;;;26.60;;
76896;SDS011;65856;52.178;21.176;2024-02-28T08:05:45;48.50;;;27.60;;
76896;SDS011;65856;52.178;21.176;2024-02-28T08:08:11;52.60;;;29.00;;
76896;SDS011;65856;52.178;21.176;2024-02-28T08:10:37;54.00;;;29.40;;
76896;SDS011;65856;52.178;21.176;2024-02-28T08:13:04;52.30;;;29.10;;
76896;SDS011;65856;52.178;21.176;2024-02-28T08:15:30;51.70;;;29.50;;
76896;SDS011;65856;52.178;21.176;2024-02-28T08:17:56;61.50;;;34.70;;
76896;SDS011;65856;52.178;21.176;2024-02-28T08:20:21;62.00;;;34.40;;
76896;SDS011;65856;52.178;21.176;2024-02-28T08:22:47;51.50;;;29.40;;
76896;SDS011;65856;52.178;21.176;2024-02-28T08:25:13;53.50;;;31.90;;
76896;SDS011;65856;52.178;21.176;2024-02-28T08:27:39;63.60;;;35.70;;
76896;SDS011;65856;52.178;21.176;2024-02-28T08:30:05;66.00;;;35.70;;
76896;SDS011;65856;52.178;21.176;2024-02-28T08:32:31;58.30;;;34.20;;
76896;SDS011;65856;52.178;21.176;2024-02-28T08:34:57;50.50;;;30.50;;
76896;SDS011;65856;52.178;21.176;2024-02-28T08:37:23;55.20;;;31.10;;
76896;SDS011;65856;52.178;21.176;2024-02-28T08:39:50;52.90;;;30.70;;
76896;SDS011;65856;52.178;21.176;2024-02-28T08:42:15;55.00;;;30.90;;
76896;SDS011;65856;52.178;21.176;2024-02-28T08:44:41;57.60;;;29.60;;
76896;SDS011;65856;52.178;21.176;2024-02-28T08:47:06;53.50;;;30.50;;
76896;SDS011;65856;52.178;21.176;2024-02-28T08:49:34;58.20;;;31.60;;
76896;SDS011;65856;52.178;21.176;2024-02-28T08:52:00;55.30;;;29.70;;
76896;SDS011;65856;52.178;21.176;2024-02-28T08:54:26;51.80;;;31.50;;
76896;SDS011;65856;52.178;21.176;2024-02-28T08:56:51;60.30;;;31.90;;
76896;SDS011;65856;52.178;21.176;2024-02-28T08:59:17;59.40;;;31.70;;
76896;SDS011;65856;52.178;21.176;2024-02-28T09:01:42;55.60;;;32.40;;
76896;SDS011;65856;52.178;21.176;2024-02-28T09:04:08;53.20;;;29.10;;
76896;SDS011;65856;52.178;21.176;2024-02-28T09:06:33;52.50;;;30.20;;
76896;SDS011;65856;52.178;21.176;2024-02-28T09:08:59;52.10;;;30.90;;
76896;SDS011;65856;52.178;21.176;2024-02-28T09:11:24;53.30;;;29.10;;
76896;SDS011;65856;52.178;21.176;2024-02-28T09:13:52;50.90;;;30.20;;
76896;SDS011;65856;52.178;21.176;2024-02-28T09:16:18;48.90;;;29.40;;
76896;SDS011;65856;52.178;21.176;2024-02-28T09:18:44;50.90;;;30.80;;
76896;SDS011;65856;52.178;21.176;2024-02-28T09:21:09;55.50;;;31.40;;
76896;SDS011;65856;52.178;21.176;2024-02-28T09:23:35;53.60;;;30.90;;
76896;SDS011;65856;52.178;21.176;2024-02-28T09:26:04;53.00;;;31.70;;
76896;SDS011;65856;52.178;21.176;2024-02-28T09:28:30;51.90;;;30.80;;
76896;SDS011;65856;52.178;21.176;2024-02-28T09:30:56;53.80;;;30.30;;
76896;SDS011;65856;52.178;21.176;2024-02-28T09:33:22;50.40;;;30.80;;
76896;SDS011;65856;52.178;21.176;2024-02-28T09:35:48;53.50;;;30.60;;
76896;SDS011;65856;52.178;21.176;2024-02-28T09:38:14;52.80;;;29.60;;
76896;SDS011;65856;52.178;21.176;2024-02-28T09:40:39;49.40;;;29.60;;
76896;SDS011;65856;52.178;21.176;2024-02-28T09:43:06;53.90;;;29.60;;
76896;SDS011;65856;52.178;21.176;2024-02-28T09:45:36;51.00;;;29.60;;
76896;SDS011;65856;52.178;21.176;2024-02-28T09:48:02;51.60;;;29.60;;
76896;SDS011;65856;52.178;21.176;2024-02-28T09:50:28;51.10;;;30.50;;
76896;SDS011;65856;52.178;21.176;2024-02-28T09:52:54;52.60;;;30.80;;
76896;SDS011;65856;52.178;21.176;2024-02-28T09:55:20;52.50;;;30.00;;
76896;SDS011;65856;52.178;21.176;2024-02-28T09:57:49;52.30;;;29.80;;
76896;SDS011;65856;52.178;21.176;2024-02-28T10:00:19;50.40;;;29.40;;
76896;SDS011;65856;52.178;21.176;2024-02-28T10:02:47;50.30;;;29.20;;
76896;SDS011;65856;52.178;21.176;2024-02-28T10:05:15;51.70;;;29.70;;
76896;SDS011;65856;52.178;21.176;2024-02-28T10:07:41;49.70;;;29.20;;
76896;SDS011;65856;52.178;21.176;2024-02-28T10:10:07;52.40;;;29.40;;
76896;SDS011;65856;52.178;21.176;2024-02-28T10:12:33;47.60;;;28.90;;
76896;SDS011;65856;52.178;21.176;2024-02-28T10:15:00;48.80;;;26.90;;
76896;SDS011;65856;52.178;21.176;2024-02-28T10:17:26;46.70;;;27.50;;
76896;SDS011;65856;52.178;21.176;2024-02-28T10:19:52;48.70;;;26.50;;
76896;SDS011;65856;52.178;21.176;2024-02-28T10:22:17;46.70;;;27.60;;
76896;SDS011;65856;52.178;21.176;2024-02-28T10:24:43;43.60;;;27.10;;
76896;SDS011;65856;52.178;21.176;2024-02-28T10:27:08;44.80;;;25.50;;
76896;SDS011;65856;52.178;21.176;2024-02-28T10:29:34;46.80;;;26.50;;
76896;SDS011;65856;52.178;21.176;2024-02-28T10:31:59;40.10;;;24.80;;
76896;SDS011;65856;52.178;21.176;2024-02-28T10:34:25;43.10;;;25.60;;
76896;SDS011;65856;52.178;21.176;2024-02-28T10:36:51;44.80;;;25.90;;
76896;SDS011;65856;52.178;21.176;2024-02-28T10:39:17;39.30;;;24.20;;
76896;SDS011;65856;52.178;21.176;2024-02-28T10:41:44;41.30;;;23.60;;
76896;SDS011;65856;52.178;21.176;2024-02-28T10:44:12;43.90;;;24.00;;
76896;SDS011;65856;52.178;21.176;2024-02-28T10:46:38;38.00;;;22.50;;
76896;SDS011;65856;52.178;21.176;2024-02-28T10:49:05;41.50;;;23.90;;
76896;SDS011;65856;52.178;21.176;2024-02-28T10:51:34;38.80;;;23.00;;
76896;SDS011;65856;52.178;21.176;2024-02-28T10:54:09;39.20;;;22.70;;
76896;SDS011;65856;52.178;21.176;2024-02-28T10:56:38;37.60;;;22.90;;
76896;SDS011;65856;52.178;21.176;2024-02-28T10:59:11;39.20;;;22.40;;
76896;SDS011;65856;52.178;21.176;2024-02-28T11:01:42;32.90;;;20.80;;
76896;SDS011;65856;52.178;21.176;2024-02-28T11:04:12;35.50;;;21.20;;
76896;SDS011;65856;52.178;21.176;2024-02-28T11:06:56;35.10;;;20.50;;
76896;SDS011;65856;52.178;21.176;2024-02-28T11:09:25;31.90;;;19.70;;
76896;SDS011;65856;52.178;21.176;2024-02-28T11:11:52;31.90;;;19.20;;
76896;SDS011;65856;52.178;21.176;2024-02-28T11:14:18;31.80;;;19.40;;
76896;SDS011;65856;52.178;21.176;2024-02-28T11:16:47;32.80;;;20.20;;
76896;SDS011;65856;52.178;21.176;2024-02-28T11:19:20;32.60;;;18.70;;
76896;SDS011;65856;52.178;21.176;2024-02-28T11:21:54;34.80;;;18.80;;
76896;SDS011;65856;52.178;21.176;2024-02-28T11:26:59;29.60;;;17.20;;
76896;SDS011;65856;52.178;21.176;2024-02-28T11:29:27;28.40;;;18.00;;
76896;SDS011;65856;52.178;21.176;2024-02-28T11:31:56;32.20;;;17.70;;
76896;SDS011;65856;52.178;21.176;2024-02-28T11:34:21;33.80;;;18.90;;
76896;SDS011;65856;52.178;21.176;2024-02-28T11:36:51;32.40;;;18.40;;
76896;SDS011;65856;52.178;21.176;2024-02-28T11:39:18;30.90;;;18.70;;
76896;SDS011;65856;52.178;21.176;2024-02-28T11:41:45;28.50;;;18.40;;
76896;SDS011;65856;52.178;21.176;2024-02-28T11:44:15;33.70;;;20.00;;
76896;SDS011;65856;52.178;21.176;2024-02-28T11:46:45;33.20;;;19.50;;
76896;SDS011;65856;52.178;21.176;2024-02-28T11:49:14;31.90;;;19.20;;
76896;SDS011;65856;52.178;21.176;2024-02-28T11:51:43;32.00;;;19.90;;
76896;SDS011;65856;52.178;21.176;2024-02-28T11:54:10;33.40;;;19.70;;
76896;SDS011;65856;52.178;21.176;2024-02-28T11:56:39;32.60;;;19.70;;
76896;SDS011;65856;52.178;21.176;2024-02-28T11:59:05;32.90;;;20.20;;
76896;SDS011;65856;52.178;21.176;2024-02-28T12:01:42;31.90;;;19.40;;
76896;SDS011;65856;52.178;21.176;2024-02-28T12:04:09;35.90;;;20.00;;
76896;SDS011;65856;52.178;21.176;2024-02-28T12:06:36;34.20;;;21.50;;
76896;SDS011;65856;52.178;21.176;2024-02-28T12:09:06;35.00;;;21.70;;
76896;SDS011;65856;52.178;21.176;2024-02-28T12:11:36;34.50;;;21.30;;
76896;SDS011;65856;52.178;21.176;2024-02-28T12:14:03;34.80;;;21.30;;
76896;SDS011;65856;52.178;21.176;2024-02-28T12:16:32;33.00;;;21.40;;
76896;SDS011;65856;52.178;21.176;2024-02-28T12:18:57;36.20;;;20.90;;
76896;SDS011;65856;52.178;21.176;2024-02-28T12:21:22;33.80;;;20.90;;
76896;SDS011;65856;52.178;21.176;2024-02-28T12:23:49;34.00;;;20.30;;
76896;SDS011;65856;52.178;21.176;2024-02-28T12:26:16;30.70;;;19.00;;
76896;SDS011;65856;52.178;21.176;2024-02-28T12:28:43;34.70;;;19.00;;
76896;SDS011;65856;52.178;21.176;2024-02-28T12:31:09;32.40;;;19.60;;
76896;SDS011;65856;52.178;21.176;2024-02-28T12:33:37;32.80;;;18.50;;
76896;SDS011;65856;52.178;21.176;2024-02-28T12:36:02;31.60;;;19.30;;
76896;SDS011;65856;52.178;21.176;2024-02-28T12:38:29;32.20;;;18.30;;
76896;SDS011;65856;52.178;21.176;2024-02-28T12:40:55;32.90;;;19.60;;
76896;SDS011;65856;52.178;21.176;2024-02-28T12:43:20;34.90;;;18.70;;
76896;SDS011;65856;52.178;21.176;2024-02-28T12:45:46;32.10;;;19.30;;
76896;SDS011;65856;52.178;21.176;2024-02-28T12:48:11;33.90;;;20.40;;
76896;SDS011;65856;52.178;21.176;2024-02-28T12:50:36;38.20;;;20.20;;
76896;SDS011;65856;52.178;21.176;2024-02-28T12:53:02;37.30;;;22.30;;
76896;SDS011;65856;52.178;21.176;2024-02-28T12:55:28;38.30;;;21.60;;
76896;SDS011;65856;52.178;21.176;2024-02-28T12:57:54;45.90;;;23.10;;
76896;SDS011;65856;52.178;21.176;2024-02-28T13:00:20;45.20;;;25.10;;
76896;SDS011;65856;52.178;21.176;2024-02-28T13:02:46;50.40;;;25.60;;
76896;SDS011;65856;52.178;21.176;2024-02-28T13:05:12;48.60;;;27.40;;
76896;SDS011;65856;52.178;21.176;2024-02-28T13:07:40;54.00;;;30.10;;
76896;SDS011;65856;52.178;21.176;2024-02-28T13:10:07;59.90;;;32.00;;
76896;SDS011;65856;52.178;21.176;2024-02-28T13:12:34;73.40;;;38.30;;
76896;SDS011;65856;52.178;21.176;2024-02-28T13:14:59;73.10;;;38.50;;
76896;SDS011;65856;52.178;21.176;2024-02-28T13:17:25;70.70;;;38.70;;
76896;SDS011;65856;52.178;21.176;2024-02-28T13:19:51;78.10;;;39.40;;
76896;SDS011;65856;52.178;21.176;2024-02-28T13:22:17;76.50;;;38.90;;
76896;SDS011;65856;52.178;21.176;2024-02-28T13:24:42;74.20;;;38.30;;
76896;SDS011;65856;52.178;21.176;2024-02-28T13:27:07;70.20;;;38.00;;
76896;SDS011;65856;52.178;21.176;2024-02-28T13:29:34;69.40;;;36.30;;
76896;SDS011;65856;52.178;21.176;2024-02-28T13:32:00;68.30;;;34.90;;
76896;SDS011;65856;52.178;21.176;2024-02-28T13:34:26;65.50;;;36.00;;
76896;SDS011;65856;52.178;21.176;2024-02-28T13:36:52;66.60;;;34.10;;
76896;SDS011;65856;52.178;21.176;2024-02-28T13:39:18;57.90;;;32.90;;
76896;SDS011;65856;52.178;21.176;2024-02-28T13:41:43;66.50;;;34.00;;
76896;SDS011;65856;52.178;21.176;2024-02-28T13:44:10;65.80;;;32.70;;
76896;SDS011;65856;52.178;21.176;2024-02-28T13:46:35;58.90;;;30.30;;
76896;SDS011;65856;52.178;21.176;2024-02-28T13:49:02;61.10;;;30.70;;
76896;SDS011;65856;52.178;21.176;2024-02-28T13:51:29;57.70;;;29.70;;
76896;SDS011;65856;52.178;21.176;2024-02-28T13:53:55;56.80;;;27.50;;
76896;SDS011;65856;52.178;21.176;2024-02-28T13:56:20;58.20;;;27.80;;
76896;SDS011;65856;52.178;21.176;2024-02-28T13:58:46;54.00;;;27.40;;
76896;SDS011;65856;52.178;21.176;2024-02-28T14:01:12;58.30;;;28.80;;
76896;SDS011;65856;52.178;21.176;2024-02-28T14:03:37;56.80;;;30.00;;
76896;SDS011;65856;52.178;21.176;2024-02-28T14:06:04;48.10;;;25.70;;